Time,TemperatureF,DewpointF,PressureIn,WindDirection,WindDirectionDegrees,WindSpeedMPH,WindSpeedGustMPH,Humidity,HourlyPrecipIn,Conditions,Clouds,dailyrainin,SoftwareType,DateUTC
2013-01-27 00:01:00,50.0,49.0,29.92,North,-999,0.0,0.0,97,0.00,,,-99.99,,2013-01-27 08:01:00,
2013-01-27 00:11:00,49.0,48.0,29.92,North,-999,0.0,0.0,97,0.00,,,-99.99,,2013-01-27 08:11:00,
2013-01-27 00:22:00,49.0,48.0,29.92,North,-999,0.0,0.0,97,0.00,,,-99.99,,2013-01-27 08:22:00,
2013-01-27 00:31:00,49.0,48.0,29.92,North,-999,0.0,0.0,97,0.01,,,-99.99,,2013-01-27 08:31:00,
2013-01-27 00:41:00,49.0,48.0,29.92,North,-999,0.0,0.0,97,0.01,,,-99.99,,2013-01-27 08:41:00,
2013-01-27 00:52:00,49.0,48.0,29.92,North,-999,0.0,0.0,97,0.01,,,-99.99,,2013-01-27 08:52:00,
2013-01-27 01:02:00,48.0,47.0,29.91,North,-999,0.0,0.0,97,0.00,,,-99.99,,2013-01-27 09:02:00,
2013-01-27 01:11:00,48.0,47.0,29.91,North,-999,0.0,0.0,97,0.00,,,-99.99,,2013-01-27 09:11:00,
2013-01-27 01:21:00,48.0,47.0,29.91,North,-999,0.0,0.0,97,0.00,,,-99.99,,2013-01-27 09:21:00,
2013-01-27 01:32:00,47.0,46.0,29.91,North,-999,0.0,0.0,97,0.00,,,-99.99,,2013-01-27 09:32:00,
2013-01-27 01:42:00,47.0,46.0,29.91,North,-999,0.0,0.0,97,0.00,,,-99.99,,2013-01-27 09:42:00,
2013-01-27 01:52:00,47.0,46.0,29.92,North,0,0.0,1.0,97,0.00,,,-99.99,,2013-01-27 09:52:00,
2013-01-27 02:01:00,47.0,46.0,29.92,North,-999,0.0,0.0,97,0.00,,,-99.99,,2013-01-27 10:01:00,
2013-01-27 02:11:00,46.0,45.0,29.93,North,-999,0.0,0.0,97,0.00,,,-99.99,,2013-01-27 10:11:00,
2013-01-27 02:21:00,46.0,45.0,29.93,North,-999,0.0,0.0,97,0.00,,,-99.99,,2013-01-27 10:21:00,
2013-01-27 02:31:00,46.0,45.0,29.93,North,-999,0.0,0.0,97,0.00,,,-99.99,,2013-01-27 10:31:00,
2013-01-27 02:41:00,46.0,45.0,29.93,North,0,0.0,1.0,98,0.00,,,-99.99,,2013-01-27 10:41:00,
2013-01-27 02:52:00,46.0,45.0,29.93,North,0,0.0,1.0,98,0.00,,,-99.99,,2013-01-27 10:52:00,
2013-01-27 03:01:00,47.0,46.0,29.93,North,-999,0.0,0.0,98,0.00,,,-99.99,,2013-01-27 11:01:00,
2013-01-27 03:11:00,46.0,45.0,29.93,North,0,0.0,1.0,98,0.00,,,-99.99,,2013-01-27 11:11:00,
2013-01-27 03:21:00,46.0,45.0,29.93,North,0,0.0,1.0,98,0.00,,,-99.99,,2013-01-27 11:21:00,
2013-01-27 03:32:00,46.0,45.0,29.92,North,-999,0.0,0.0,98,0.00,,,-99.99,,2013-01-27 11:32:00,
2013-01-27 03:42:00,46.0,45.0,29.93,North,-999,0.0,0.0,98,0.00,,,-99.99,,2013-01-27 11:42:00,
2013-01-27 03:52:00,46.0,45.0,29.93,North,-999,0.0,0.0,98,0.00,,,-99.99,,2013-01-27 11:52:00,
2013-01-27 04:02:00,46.0,45.0,29.93,North,-999,0.0,0.0,98,0.00,,,-99.99,,2013-01-27 12:02:00,
2013-01-27 04:11:00,46.0,45.0,29.93,North,0,0.0,1.0,98,0.00,,,-99.99,,2013-01-27 12:11:00,
2013-01-27 04:21:00,46.0,45.0,29.93,North,0,0.0,1.0,98,0.00,,,-99.99,,2013-01-27 12:21:00,
2013-01-27 04:32:00,46.0,45.0,29.93,North,-999,0.0,0.0,98,0.01,,,-99.99,,2013-01-27 12:32:00,
2013-01-27 04:42:00,46.0,45.0,29.93,North,0,0.0,4.0,98,0.00,,,-99.99,,2013-01-27 12:42:00,
2013-01-27 04:52:00,46.0,45.0,29.93,North,0,0.0,4.0,98,0.00,,,-99.99,,2013-01-27 12:52:00,
2013-01-27 05:02:00,46.0,45.0,29.93,North,-999,0.0,0.0,98,0.00,,,-99.99,,2013-01-27 13:02:00,
2013-01-27 05:11:00,46.0,45.0,29.92,North,-999,0.0,0.0,98,0.00,,,-99.99,,2013-01-27 13:11:00,
2013-01-27 05:22:00,46.0,45.0,29.92,North,-999,0.0,0.0,98,0.00,,,-99.99,,2013-01-27 13:22:00,
2013-01-27 05:32:00,46.0,45.0,29.92,North,-999,0.0,0.0,98,0.00,,,-99.99,,2013-01-27 13:32:00,
2013-01-27 05:42:00,46.0,45.0,29.92,North,-999,0.0,0.0,98,0.00,,,-99.99,,2013-01-27 13:42:00,
2013-01-27 05:52:00,46.0,45.0,29.92,North,-999,0.0,0.0,98,0.00,,,-99.99,,2013-01-27 13:52:00,
2013-01-27 06:01:00,46.0,45.0,29.92,North,-999,0.0,0.0,98,0.00,,,-99.99,,2013-01-27 14:01:00,
2013-01-27 06:11:00,46.0,45.0,29.93,North,-999,0.0,0.0,98,0.00,,,-99.99,,2013-01-27 14:11:00,
2013-01-27 06:21:00,46.0,45.0,29.93,North,-999,0.0,0.0,98,0.00,,,-99.99,,2013-01-27 14:21:00,
2013-01-27 06:32:00,46.0,45.0,29.93,North,-999,0.0,0.0,98,0.00,,,-99.99,,2013-01-27 14:32:00,
2013-01-27 06:42:00,46.0,45.0,29.94,North,-999,0.0,0.0,98,0.00,,,-99.99,,2013-01-27 14:42:00,
2013-01-27 06:52:00,46.0,45.0,29.94,North,-999,0.0,0.0,98,0.00,,,-99.99,,2013-01-27 14:52:00,
2013-01-27 07:01:00,46.0,45.0,29.94,North,-999,0.0,0.0,98,0.00,,,-99.99,,2013-01-27 15:01:00,
2013-01-27 07:11:00,46.0,45.0,29.94,North,0,0.0,1.0,98,0.00,,,-99.99,,2013-01-27 15:11:00,
2013-01-27 07:21:00,46.0,45.0,29.94,North,0,0.0,1.0,98,0.00,,,-99.99,,2013-01-27 15:21:00,
2013-01-27 07:32:00,46.0,45.0,29.94,North,0,0.0,1.0,98,0.00,,,-99.99,,2013-01-27 15:32:00,
2013-01-27 07:42:00,46.0,45.0,29.94,North,0,0.0,1.0,98,0.00,,,-99.99,,2013-01-27 15:42:00,
2013-01-27 16:01:00,49.0,26.0,29.97,West,260,4.0,13.0,41,0.00,,,-99.99,,2013-01-28 00:01:00,
2013-01-27 16:11:00,49.0,26.0,29.97,West,260,6.0,14.0,40,0.00,,,-99.99,,2013-01-28 00:11:00,
2013-01-27 16:21:00,49.0,26.0,29.97,West,260,6.0,14.0,40,0.00,,,-99.99,,2013-01-28 00:21:00,
2013-01-27 16:32:00,48.0,23.0,29.97,West,270,10.0,10.0,37,0.00,,,-99.99,,2013-01-28 00:32:00,
2013-01-27 16:41:00,47.0,23.0,29.97,West,280,10.0,14.0,39,0.00,,,-99.99,,2013-01-28 00:41:00,
2013-01-27 16:52:00,47.0,23.0,29.97,West,280,10.0,14.0,39,0.00,,,-99.99,,2013-01-28 00:52:00,
2013-01-27 17:01:00,47.0,25.0,29.98,West,280,3.0,7.0,42,0.00,,,-99.99,,2013-01-28 01:01:00,
2013-01-27 17:11:00,46.0,25.0,29.98,WNW,290,4.0,15.0,43,0.00,,,-99.99,,2013-01-28 01:11:00,
2013-01-27 17:21:00,46.0,25.0,29.98,WNW,290,4.0,15.0,43,0.00,,,-99.99,,2013-01-28 01:21:00,
2013-01-27 17:32:00,46.0,25.0,29.99,WNW,290,9.0,12.0,43,0.00,,,-99.99,,2013-01-28 01:32:00,
2013-01-27 17:42:00,45.0,24.0,30.00,WNW,300,8.0,15.0,43,0.00,,,-99.99,,2013-01-28 01:42:00,
2013-01-27 17:52:00,45.0,24.0,30.00,WNW,300,8.0,15.0,43,0.00,,,-99.99,,2013-01-28 01:52:00,
2013-01-27 18:02:00,44.0,23.0,30.01,WNW,300,13.0,13.0,44,0.00,,,-99.99,,2013-01-28 02:02:00,
2013-01-27 18:11:00,44.0,23.0,30.01,WNW,300,13.0,13.0,44,0.00,,,-99.99,,2013-01-28 02:11:00,
2013-01-27 18:21:00,44.0,24.0,30.02,WNW,300,3.0,15.0,45,0.00,,,-99.99,,2013-01-28 02:21:00,
2013-01-27 18:32:00,44.0,24.0,30.02,WNW,300,3.0,15.0,45,0.00,,,-99.99,,2013-01-28 02:32:00,
2013-01-27 18:42:00,43.0,22.0,30.03,NW,310,5.0,16.0,43,0.00,,,-99.99,,2013-01-28 02:42:00,
2013-01-27 18:52:00,43.0,22.0,30.03,NW,310,5.0,16.0,43,0.00,,,-99.99,,2013-01-28 02:52:00,
2013-01-27 19:02:00,43.0,22.0,30.03,NW,310,5.0,16.0,43,0.00,,,-99.99,,2013-01-28 03:02:00,
2013-01-27 19:11:00,43.0,22.0,30.02,NW,310,4.0,13.0,43,0.00,,,-99.99,,2013-01-28 03:11:00,
2013-01-27 19:21:00,43.0,22.0,30.02,NW,310,4.0,13.0,43,0.00,,,-99.99,,2013-01-28 03:21:00,
2013-01-27 19:32:00,43.0,22.0,30.03,NW,310,6.0,9.0,42,0.00,,,-99.99,,2013-01-28 03:32:00,
2013-01-27 19:41:00,43.0,23.0,30.04,NW,310,14.0,24.0,44,0.00,,,-99.99,,2013-01-28 03:41:00,
2013-01-27 19:52:00,43.0,23.0,30.04,NW,310,14.0,24.0,44,0.00,,,-99.99,,2013-01-28 03:52:00,
2013-01-27 20:01:00,42.0,23.0,30.05,NW,310,6.0,8.0,46,0.00,,,-99.99,,2013-01-28 04:01:00,
2013-01-27 20:11:00,42.0,23.0,30.05,NW,310,2.0,19.0,47,0.00,,,-99.99,,2013-01-28 04:11:00,
2013-01-27 20:21:00,42.0,23.0,30.05,NW,310,2.0,19.0,47,0.00,,,-99.99,,2013-01-28 04:21:00,
2013-01-27 20:31:00,42.0,23.0,30.06,NW,310,2.0,4.0,47,0.00,,,-99.99,,2013-01-28 04:31:00,
2013-01-27 20:41:00,42.0,23.0,30.05,WNW,300,3.0,19.0,46,0.00,,,-99.99,,2013-01-28 04:41:00,
2013-01-27 20:52:00,42.0,23.0,30.05,WNW,300,3.0,19.0,46,0.00,,,-99.99,,2013-01-28 04:52:00,
2013-01-27 21:03:00,43.0,24.0,30.07,WNW,300,2.0,13.0,46,0.00,,,-99.99,,2013-01-28 05:03:00,
2013-01-27 21:11:00,43.0,24.0,30.07,WNW,300,2.0,13.0,46,0.00,,,-99.99,,2013-01-28 05:11:00,
2013-01-27 21:21:00,42.0,23.0,30.07,WNW,300,5.0,16.0,46,0.00,,,-99.99,,2013-01-28 05:21:00,
2013-01-27 21:31:00,42.0,23.0,30.07,WNW,290,7.0,14.0,47,0.00,,,-99.99,,2013-01-28 05:31:00,
2013-01-27 21:41:00,42.0,23.0,30.07,WNW,290,7.0,14.0,47,0.00,,,-99.99,,2013-01-28 05:41:00,
2013-01-27 21:52:00,42.0,23.0,30.07,WNW,290,7.0,14.0,47,0.00,,,-99.99,,2013-01-28 05:52:00,
2013-01-27 22:01:00,42.0,22.0,30.10,WNW,290,2.0,2.0,45,0.00,,,-99.99,,2013-01-28 06:01:00,
2013-01-27 22:11:00,42.0,21.0,30.10,WNW,300,6.0,10.0,43,0.00,,,-99.99,,2013-01-28 06:11:00,
2013-01-27 22:21:00,42.0,21.0,30.10,WNW,300,6.0,10.0,43,0.00,,,-99.99,,2013-01-28 06:21:00,
2013-01-27 22:32:00,42.0,20.0,30.10,WNW,300,6.0,7.0,41,0.00,,,-99.99,,2013-01-28 06:32:00,
2013-01-27 22:42:00,42.0,20.0,30.10,WNW,300,6.0,7.0,41,0.00,,,-99.99,,2013-01-28 06:42:00,
2013-01-27 22:52:00,42.0,20.0,30.10,WNW,300,6.0,7.0,41,0.00,,,-99.99,,2013-01-28 06:52:00,
2013-01-27 23:02:00,41.0,19.0,30.12,WNW,300,6.0,6.0,41,0.00,,,-99.99,,2013-01-28 07:02:00,
2013-01-27 23:11:00,41.0,20.0,30.14,WNW,300,6.0,8.0,42,0.00,,,-99.99,,2013-01-28 07:11:00,
2013-01-27 23:21:00,41.0,20.0,30.14,WNW,300,6.0,8.0,42,0.00,,,-99.99,,2013-01-28 07:21:00,
2013-01-27 23:31:00,41.0,20.0,30.15,WNW,300,7.0,9.0,43,0.00,,,-99.99,,2013-01-28 07:31:00,
2013-01-27 23:41:00,41.0,21.0,30.14,WNW,300,8.0,10.0,44,0.00,,,-99.99,,2013-01-28 07:41:00,
2013-01-27 23:52:00,41.0,21.0,30.14,WNW,300,8.0,10.0,44,0.00,,,-99.99,,2013-01-28 07:52:00,